createdAt,value
2022-09-14T00:01:53.891Z,1.90
2022-09-14T00:04:41.940Z,2.17
2022-09-14T00:07:28.815Z,1.90
2022-09-14T00:10:15.798Z,1.70
2022-09-14T00:13:02.806Z,2.00
2022-09-14T00:15:51.942Z,1.73
2022-09-14T00:18:38.907Z,1.50
2022-09-14T00:21:26.511Z,2.10
2022-09-14T00:24:13.460Z,1.97
2022-09-14T00:27:00.770Z,2.37
2022-09-14T00:29:48.600Z,1.70
2022-09-14T00:32:35.517Z,2.00
2022-09-14T00:35:22.444Z,1.83
2022-09-14T00:38:09.798Z,1.97
2022-09-14T00:40:59.136Z,1.90
2022-09-14T00:44:03.876Z,1.50
2022-09-14T00:46:54.380Z,2.00
2022-09-14T00:49:43.506Z,2.07
2022-09-14T00:52:34.312Z,1.93
2022-09-14T00:55:23.443Z,1.80
2022-09-14T00:58:10.511Z,2.30
2022-09-14T01:00:58.816Z,2.20
2022-09-14T01:03:46.041Z,1.90
2022-09-14T01:06:38.996Z,2.00
2022-09-14T01:09:43.894Z,1.83
2022-09-14T01:13:04.245Z,2.20
2022-09-14T01:16:03.375Z,1.80
2022-09-14T01:18:56.480Z,2.10
2022-09-14T01:21:44.902Z,1.90
2022-09-14T01:24:53.005Z,1.87
2022-09-14T01:27:43.838Z,1.80
2022-09-14T01:30:33.507Z,2.10
2022-09-14T01:33:31.255Z,1.70
2022-09-14T01:36:19.166Z,1.73
2022-09-14T01:39:07.428Z,2.07
2022-09-14T01:41:55.628Z,1.70
2022-09-14T01:44:47.905Z,1.70
2022-09-14T01:47:41.094Z,2.13
2022-09-14T01:50:43.542Z,2.60
2022-09-14T01:53:39.139Z,1.97
2022-09-14T01:56:51.357Z,1.80
2022-09-14T01:59:43.182Z,2.13
2022-09-14T02:02:46.691Z,2.03
2022-09-14T02:05:57.312Z,2.33
2022-09-14T02:08:44.240Z,2.10
2022-09-14T02:11:31.236Z,1.87
2022-09-14T02:14:18.164Z,2.40
2022-09-14T02:17:05.207Z,2.63
2022-09-14T02:19:57.503Z,2.33
2022-09-14T02:22:44.555Z,2.40
2022-09-14T02:25:32.602Z,2.03
2022-09-14T02:28:19.618Z,2.50
2022-09-14T02:31:28.078Z,2.30
2022-09-14T02:34:33.994Z,2.20
2022-09-14T02:37:42.850Z,2.10
2022-09-14T02:40:32.975Z,2.40
2022-09-14T02:43:26.641Z,1.80
2022-09-14T02:46:19.474Z,1.80
2022-09-14T02:49:29.703Z,2.20
2022-09-14T02:52:25.776Z,2.00
2022-09-14T02:55:18.566Z,2.70
2022-09-14T02:58:10.666Z,1.80
2022-09-14T03:00:57.588Z,1.77
2022-09-14T03:03:44.683Z,1.80
2022-09-14T03:06:31.624Z,1.80
2022-09-14T03:09:18.571Z,2.10
2022-09-14T03:12:05.689Z,2.10
2022-09-14T03:14:52.549Z,1.87
2022-09-14T03:17:39.505Z,2.13
2022-09-14T03:20:31.276Z,1.97
2022-09-14T03:23:18.142Z,3.20
2022-09-14T03:26:24.927Z,2.20
2022-09-14T03:29:11.785Z,2.20
2022-09-14T03:31:58.640Z,2.40
2022-09-14T03:34:45.507Z,2.07
2022-09-14T03:37:32.402Z,2.40
2022-09-14T03:40:21.844Z,1.83
2022-09-14T03:43:09.470Z,2.27
2022-09-14T03:45:56.355Z,1.87
2022-09-14T03:48:44.267Z,2.00
2022-09-14T03:51:31.289Z,2.27
2022-09-14T03:54:18.269Z,2.10
2022-09-14T03:57:07.348Z,2.10
2022-09-14T03:59:54.368Z,2.10
2022-09-14T04:02:41.341Z,2.20
2022-09-14T04:05:28.276Z,2.23
2022-09-14T04:08:15.130Z,2.57
2022-09-14T04:11:10.954Z,2.20
2022-09-14T04:14:02.148Z,1.80
2022-09-14T04:16:49.069Z,2.50
2022-09-14T04:19:37.510Z,2.70
2022-09-14T04:22:24.487Z,2.13
2022-09-14T04:25:11.697Z,2.53
2022-09-14T04:28:19.152Z,2.80
2022-09-14T04:31:05.720Z,2.10
2022-09-14T04:33:56.917Z,2.40
2022-09-14T04:36:43.904Z,3.23
2022-09-14T04:39:30.862Z,2.77
2022-09-14T04:42:17.736Z,3.23
2022-09-14T04:45:05.010Z,3.27
2022-09-14T04:47:51.887Z,2.43
2022-09-14T04:50:38.765Z,2.63
2022-09-14T04:53:25.646Z,2.33
2022-09-14T04:56:14.198Z,2.10
2022-09-14T04:59:04.103Z,2.80
2022-09-14T05:01:52.103Z,2.27
2022-09-14T05:04:39.057Z,2.40
2022-09-14T05:07:27.136Z,2.20
2022-09-14T05:10:14.159Z,2.30
2022-09-14T05:13:01.032Z,2.40
2022-09-14T05:15:47.974Z,2.17
2022-09-14T05:18:35.203Z,2.00
2022-09-14T05:21:22.972Z,3.57
2022-09-14T05:24:15.497Z,3.30
2022-09-14T05:27:02.533Z,3.70
2022-09-14T05:29:49.436Z,3.00
2022-09-14T05:32:36.295Z,2.53
2022-09-14T05:35:23.162Z,3.03
2022-09-14T05:38:10.041Z,3.17
2022-09-14T05:40:57.189Z,2.37
2022-09-14T05:43:44.635Z,2.23
2022-09-14T05:46:31.651Z,2.40
2022-09-14T05:49:18.536Z,2.77
2022-09-14T05:52:05.653Z,2.10
2022-09-14T05:54:52.594Z,1.80
2022-09-14T05:57:39.467Z,2.00
2022-09-14T06:00:27.602Z,2.13
2022-09-14T06:03:14.475Z,2.30
2022-09-14T06:06:01.968Z,2.30
2022-09-14T06:08:52.424Z,2.27
2022-09-14T06:11:39.348Z,2.30
2022-09-14T06:14:26.210Z,2.27
2022-09-14T06:17:13.089Z,2.30
2022-09-14T06:20:03.650Z,2.40
2022-09-14T06:22:51.447Z,2.53
2022-09-14T06:25:38.337Z,2.60
2022-09-14T06:28:26.359Z,3.00
2022-09-14T06:31:14.755Z,2.90
2022-09-14T06:34:03.210Z,2.50
2022-09-14T06:36:50.086Z,3.33
2022-09-14T06:39:37.103Z,2.77
2022-09-14T06:42:24.292Z,2.60
2022-09-14T06:45:11.169Z,2.73
2022-09-14T06:47:58.915Z,3.00
2022-09-14T06:50:45.817Z,2.80
2022-09-14T06:53:32.699Z,3.40
2022-09-14T06:56:20.139Z,2.47
2022-09-14T06:59:09.973Z,2.60
2022-09-14T07:01:56.864Z,2.17
2022-09-14T07:04:43.800Z,2.40
2022-09-14T07:07:30.911Z,2.90
2022-09-14T07:10:17.823Z,2.70
2022-09-14T07:13:04.761Z,2.43
2022-09-14T07:15:51.791Z,2.33
2022-09-14T07:18:39.110Z,2.73
2022-09-14T07:21:26.695Z,2.40
2022-09-14T07:24:14.975Z,2.07
2022-09-14T07:27:02.756Z,2.07
2022-09-14T07:29:49.633Z,2.37
2022-09-14T07:32:36.540Z,2.53
2022-09-14T07:35:23.973Z,2.80
2022-09-14T07:38:10.856Z,2.10
2022-09-14T07:40:58.842Z,2.30
2022-09-14T07:43:49.852Z,2.23
2022-09-14T07:46:42.015Z,2.23
2022-09-14T07:49:29.615Z,2.13
2022-09-14T07:52:16.738Z,2.45
2022-09-14T07:55:03.975Z,2.30
2022-09-14T07:57:56.604Z,2.47
2022-09-14T08:00:44.493Z,1.93
2022-09-14T08:03:31.705Z,2.05
2022-09-14T08:06:21.410Z,2.00
2022-09-14T08:09:08.834Z,1.75
2022-09-14T08:11:55.956Z,2.50
2022-09-14T08:14:42.969Z,1.67
2022-09-14T08:17:29.843Z,1.93
2022-09-14T08:20:17.753Z,2.00
2022-09-14T08:23:04.643Z,2.10
2022-09-14T08:25:53.128Z,2.20
2022-09-14T08:28:40.973Z,2.03
2022-09-14T08:31:28.817Z,1.55
2022-09-14T08:34:16.452Z,2.30
2022-09-14T08:37:03.392Z,2.17
2022-09-14T08:39:51.827Z,1.60
2022-09-14T08:42:40.996Z,1.50
2022-09-14T08:45:29.319Z,2.35
2022-09-14T08:48:25.919Z,1.95
2022-09-14T08:51:12.809Z,2.50
2022-09-14T08:53:59.697Z,2.17
2022-09-14T08:56:54.911Z,1.92
2022-09-14T08:59:47.476Z,2.05
2022-09-14T09:02:57.895Z,1.92
2022-09-14T09:05:54.590Z,2.13
2022-09-14T09:08:59.314Z,2.10
2022-09-14T09:11:50.775Z,1.55
2022-09-14T09:14:43.127Z,1.65
2022-09-14T09:17:38.634Z,1.75
2022-09-14T09:20:46.277Z,1.80
2022-09-14T09:23:34.070Z,1.92
2022-09-14T09:26:30.886Z,1.70
2022-09-14T09:29:18.115Z,2.33
2022-09-14T09:32:08.132Z,2.22
2022-09-14T09:34:55.176Z,1.60
2022-09-14T09:37:42.299Z,2.22
2022-09-14T09:40:35.084Z,1.90
2022-09-14T09:43:45.282Z,1.90
2022-09-14T09:46:34.420Z,1.80
2022-09-14T09:49:27.257Z,1.70
2022-09-14T09:52:17.549Z,2.20
2022-09-14T09:55:06.217Z,1.90
2022-09-14T09:57:54.613Z,1.92
2022-09-14T10:00:41.611Z,1.80
2022-09-14T10:03:33.303Z,1.70
2022-09-14T10:06:20.207Z,1.90
2022-09-14T10:09:17.261Z,1.75
2022-09-14T10:12:05.589Z,1.70
2022-09-14T10:15:06.641Z,1.85
2022-09-14T10:18:02.798Z,1.85
2022-09-14T10:20:52.844Z,1.80
2022-09-14T10:23:40.327Z,1.50
2022-09-14T10:26:30.924Z,1.70
2022-09-14T10:29:36.377Z,1.58
2022-09-14T10:32:25.439Z,1.80
2022-09-14T10:35:15.424Z,1.90
2022-09-14T10:38:18.912Z,1.88
2022-09-14T10:41:27.081Z,2.58
2022-09-14T10:44:19.510Z,1.95
2022-09-14T10:47:47.983Z,2.08
2022-09-14T10:50:59.720Z,1.70
2022-09-14T10:54:19.053Z,2.20
2022-09-14T10:57:31.057Z,2.00
2022-09-14T11:00:22.024Z,2.10
2022-09-14T11:03:24.327Z,1.92
2022-09-14T11:06:38.218Z,1.77
2022-09-14T11:09:43.493Z,1.90
2022-09-14T11:13:04.677Z,1.88
2022-09-14T11:16:10.196Z,2.47
2022-09-14T11:19:21.577Z,1.73
2022-09-14T11:22:14.635Z,1.75
2022-09-14T11:25:04.968Z,1.70
2022-09-14T11:27:58.048Z,2.08
2022-09-14T11:30:56.982Z,1.67
2022-09-14T11:33:48.821Z,1.73
2022-09-14T11:36:47.123Z,1.65
2022-09-14T11:39:49.725Z,1.58
2022-09-14T11:42:50.788Z,1.90
2022-09-14T11:45:42.432Z,1.65
2022-09-14T11:48:44.334Z,1.88
2022-09-14T11:52:20.874Z,1.77
2022-09-14T11:55:17.119Z,1.60
2022-09-14T11:58:07.231Z,2.30
2022-09-14T12:01:03.607Z,2.00
2022-09-14T12:04:06.769Z,1.77
2022-09-14T12:06:54.684Z,1.58
2022-09-14T12:09:42.958Z,1.98
2022-09-14T12:12:32.967Z,1.92
2022-09-14T12:15:26.014Z,2.35
2022-09-14T12:18:13.962Z,2.35
2022-09-14T12:21:08.104Z,2.10
2022-09-14T12:23:57.776Z,2.03
2022-09-14T12:26:45.962Z,1.90
2022-09-14T12:32:43.290Z,2.03
2022-09-14T12:35:46.066Z,2.00
2022-09-14T12:38:43.039Z,1.60
2022-09-14T12:41:36.220Z,2.17
2022-09-14T12:44:34.987Z,1.80
2022-09-14T12:47:24.878Z,2.17
2022-09-14T12:50:20.766Z,2.38
2022-09-14T12:53:27.904Z,2.35
2022-09-14T12:56:25.108Z,1.98
2022-09-14T12:59:34.119Z,2.53
2022-09-14T13:02:39.302Z,2.00
2022-09-14T13:05:29.632Z,2.47
2022-09-14T13:08:22.831Z,2.20
2022-09-14T13:11:09.959Z,1.92
2022-09-14T13:13:57.758Z,2.03
2022-09-14T13:16:47.410Z,2.17
2022-09-14T13:19:34.508Z,1.60
2022-09-14T13:22:24.292Z,1.98
2022-09-14T13:25:28.011Z,2.17
2022-09-14T13:28:17.972Z,1.90
2022-09-14T13:31:05.441Z,1.75
2022-09-14T13:33:54.681Z,2.30
2022-09-14T13:36:43.642Z,2.08
2022-09-14T13:39:34.909Z,2.05
2022-09-14T13:42:23.421Z,1.67
2022-09-14T13:45:12.952Z,1.77
2022-09-14T13:48:00.190Z,1.55
2022-09-14T13:50:51.807Z,1.38
2022-09-14T13:53:45.479Z,2.15
2022-09-14T13:56:34.628Z,1.85
2022-09-14T13:59:22.800Z,1.90
2022-09-14T14:02:13.404Z,1.65
2022-09-14T14:05:00.477Z,1.85
2022-09-14T14:07:47.422Z,2.08
2022-09-14T14:10:45.043Z,1.50
2022-09-14T14:13:37.346Z,1.75
2022-09-14T14:16:29.047Z,1.35
2022-09-14T14:19:36.345Z,1.83
2022-09-14T14:22:30.252Z,1.85
2022-09-14T14:25:29.172Z,2.35
2022-09-14T14:28:18.991Z,1.90
2022-09-14T14:31:09.766Z,1.90
2022-09-14T14:33:58.778Z,1.70
2022-09-14T14:36:47.860Z,1.50
2022-09-14T14:39:35.423Z,1.63
2022-09-14T14:42:22.544Z,1.70
2022-09-14T14:45:19.042Z,2.33
2022-09-14T14:48:06.108Z,1.60
2022-09-14T14:50:55.588Z,1.92
2022-09-14T14:53:43.007Z,1.50
2022-09-14T14:56:29.956Z,2.13
2022-09-14T14:59:26.496Z,1.70
2022-09-14T15:02:13.367Z,1.90
2022-09-14T15:05:00.250Z,1.88
2022-09-14T15:07:49.707Z,1.67
2022-09-14T15:10:36.773Z,1.70
2022-09-14T15:13:23.667Z,1.88
2022-09-14T15:16:10.886Z,1.73
2022-09-14T15:18:58.309Z,1.65
2022-09-14T15:21:45.212Z,1.95
2022-09-14T15:24:32.070Z,1.80
2022-09-14T15:27:18.970Z,2.05
2022-09-14T15:30:07.392Z,1.70
2022-09-14T15:32:54.424Z,1.65
2022-09-14T15:35:41.299Z,1.67
2022-09-14T15:38:28.305Z,1.55
2022-09-14T15:41:15.198Z,1.60
2022-09-14T15:44:03.622Z,1.60
2022-09-14T15:46:50.579Z,1.40
2022-09-14T15:49:37.584Z,1.63
2022-09-14T15:52:24.472Z,1.60
2022-09-14T15:55:12.380Z,1.30
2022-09-14T15:57:59.335Z,1.60
2022-09-14T16:00:46.412Z,1.52
2022-09-14T16:03:33.391Z,1.60
2022-09-14T16:06:20.294Z,1.42
2022-09-14T16:09:09.775Z,1.33
2022-09-14T16:12:01.446Z,1.33
2022-09-14T16:14:48.712Z,1.40
2022-09-14T16:17:35.621Z,1.17
2022-09-14T16:20:22.888Z,1.73
2022-09-14T16:23:09.797Z,1.40
2022-09-14T16:25:56.677Z,1.80
2022-09-14T16:28:45.515Z,1.50
2022-09-14T16:31:34.537Z,1.23
2022-09-14T16:34:27.790Z,1.40
2022-09-14T16:37:15.461Z,1.33
2022-09-14T16:40:03.411Z,1.10
2022-09-14T16:42:51.877Z,1.40
2022-09-14T16:45:38.842Z,1.70
2022-09-14T16:48:25.832Z,1.95
2022-09-14T16:51:14.677Z,1.30
2022-09-14T16:54:01.715Z,0.95
2022-09-14T16:56:48.989Z,1.70
2022-09-14T16:59:35.980Z,1.58
2022-09-14T17:02:23.061Z,1.38
2022-09-14T17:05:10.098Z,1.58
2022-09-14T17:07:56.971Z,1.35
2022-09-14T17:10:47.035Z,1.30
2022-09-14T17:13:34.355Z,1.50
2022-09-14T17:16:23.402Z,1.42
2022-09-14T17:19:10.795Z,1.35
2022-09-14T17:21:57.826Z,1.33
2022-09-14T17:24:44.697Z,1.90
2022-09-14T17:27:31.579Z,1.30
2022-09-14T17:30:18.588Z,1.30
2022-09-14T17:33:05.483Z,1.40
2022-09-14T17:35:57.738Z,1.13
2022-09-14T17:38:44.805Z,1.10
2022-09-14T17:41:33.034Z,1.48
2022-09-14T17:44:20.095Z,1.13
2022-09-14T17:47:07.088Z,1.80
2022-09-14T17:49:54.333Z,1.25
2022-09-14T17:52:41.203Z,1.30
2022-09-14T17:55:28.612Z,1.50
2022-09-14T17:58:19.615Z,1.48
2022-09-14T18:01:23.193Z,1.20
2022-09-14T18:04:12.358Z,1.40
2022-09-14T18:06:59.233Z,1.23
2022-09-14T18:09:46.071Z,1.33
2022-09-14T18:12:36.253Z,1.20
2022-09-14T18:15:23.109Z,1.25
2022-09-14T18:18:10.046Z,1.30
2022-09-14T18:21:00.358Z,1.10
2022-09-14T18:23:51.711Z,1.05
2022-09-14T18:26:38.639Z,1.50
2022-09-14T18:29:25.844Z,1.23
2022-09-14T18:32:12.749Z,1.25
2022-09-14T18:35:00.947Z,1.23
2022-09-14T18:37:47.853Z,1.17
2022-09-14T18:40:36.699Z,1.20
2022-09-14T18:43:23.784Z,1.10
2022-09-14T18:46:11.393Z,1.10
2022-09-14T18:49:00.669Z,1.10
2022-09-14T18:51:47.551Z,1.10
2022-09-14T18:54:34.408Z,1.25
2022-09-14T18:57:22.177Z,1.10
2022-09-14T19:00:10.034Z,1.02
2022-09-14T19:02:57.602Z,1.50
2022-09-14T19:05:44.477Z,1.48
2022-09-14T19:08:31.418Z,1.20
2022-09-14T19:11:21.065Z,1.38
2022-09-14T19:14:10.624Z,1.65
2022-09-14T19:16:58.371Z,1.52
2022-09-14T19:19:45.257Z,1.30
2022-09-14T19:22:32.367Z,1.63
2022-09-14T19:25:20.037Z,1.65
2022-09-14T19:28:07.445Z,1.43
2022-09-14T19:30:54.349Z,1.38
2022-09-14T19:33:45.462Z,1.30
2022-09-14T19:36:34.749Z,1.50
2022-09-14T19:39:25.661Z,1.58
2022-09-14T19:42:12.551Z,1.40
2022-09-14T19:44:59.427Z,1.37
2022-09-14T19:47:46.375Z,1.33
2022-09-14T19:50:33.266Z,1.55
2022-09-14T19:53:20.172Z,1.30
2022-09-14T19:56:11.492Z,1.45
2022-09-14T19:59:00.309Z,1.73
2022-09-14T20:01:47.913Z,1.40
2022-09-14T20:04:34.968Z,1.23
2022-09-14T20:07:21.855Z,1.50
2022-09-14T20:10:09.424Z,1.17
2022-09-14T20:12:56.346Z,1.40
2022-09-14T20:15:43.244Z,1.33
2022-09-14T20:18:31.691Z,1.13
2022-09-14T20:21:21.164Z,1.40
2022-09-14T20:24:17.778Z,1.50
2022-09-14T20:27:05.095Z,1.50
2022-09-14T20:29:52.013Z,1.65
2022-09-14T20:32:38.884Z,1.37
2022-09-14T20:35:25.790Z,1.53
2022-09-14T20:38:12.670Z,1.60
2022-09-14T20:41:06.823Z,1.43
2022-09-14T20:43:54.032Z,1.60
2022-09-14T20:46:43.746Z,1.80
2022-09-14T20:49:30.687Z,1.80
2022-09-14T20:52:19.076Z,1.50
2022-09-14T20:55:06.621Z,1.90
2022-09-14T20:57:53.500Z,1.93
2022-09-14T21:00:40.449Z,1.60
2022-09-14T21:03:27.789Z,1.50
2022-09-14T21:06:18.091Z,1.50
2022-09-14T21:09:09.479Z,1.80
2022-09-14T21:11:56.442Z,1.50
2022-09-14T21:14:45.057Z,1.77
2022-09-14T21:17:33.897Z,1.70
2022-09-14T21:20:20.814Z,1.73
2022-09-14T21:23:07.820Z,1.73
2022-09-14T21:25:56.467Z,1.80
2022-09-14T21:28:43.600Z,1.80
2022-09-14T21:31:30.884Z,1.80
2022-09-14T21:34:17.832Z,1.97
2022-09-14T21:37:05.129Z,1.33
2022-09-14T21:39:53.916Z,1.63
2022-09-14T21:42:41.249Z,1.67
2022-09-14T21:45:28.111Z,1.97
2022-09-14T21:48:15.056Z,1.67
2022-09-14T21:51:05.273Z,1.70
2022-09-14T21:53:53.267Z,1.47
2022-09-14T21:56:42.633Z,1.90
2022-09-14T21:59:29.563Z,1.70
2022-09-14T22:02:16.541Z,2.30
2022-09-14T22:05:03.912Z,1.80
2022-09-14T22:07:50.790Z,1.80
2022-09-14T22:10:38.365Z,1.70
2022-09-14T22:13:25.221Z,1.67
2022-09-14T22:16:16.942Z,1.80
2022-09-14T22:19:08.656Z,2.27
2022-09-14T22:21:56.511Z,1.80
2022-09-14T22:24:43.724Z,1.57
2022-09-14T22:27:31.608Z,2.00
2022-09-14T22:30:18.880Z,2.00
2022-09-14T22:33:05.759Z,1.97
2022-09-14T22:35:58.290Z,1.93
2022-09-14T22:38:45.569Z,2.00
2022-09-14T22:41:32.814Z,2.93
2022-09-14T22:44:19.676Z,1.77
2022-09-14T22:47:06.728Z,2.00
2022-09-14T22:49:53.624Z,1.97
2022-09-14T22:52:40.547Z,2.17
2022-09-14T22:55:27.453Z,2.10
2022-09-14T22:58:15.762Z,1.90
2022-09-14T23:01:07.632Z,2.50
2022-09-14T23:03:57.624Z,2.10
2022-09-14T23:06:47.494Z,2.20
2022-09-14T23:09:34.424Z,2.30
2022-09-14T23:12:21.343Z,2.27
2022-09-14T23:15:08.946Z,2.13
2022-09-14T23:17:55.829Z,2.20
2022-09-14T23:20:44.466Z,2.00
2022-09-14T23:23:31.476Z,1.73
2022-09-14T23:26:18.357Z,2.10
2022-09-14T23:29:09.290Z,1.93
2022-09-14T23:31:56.179Z,1.80
2022-09-14T23:34:43.218Z,2.10
2022-09-14T23:37:30.161Z,2.03
2022-09-14T23:40:19.491Z,2.00
2022-09-14T23:43:07.188Z,1.87
2022-09-14T23:45:54.119Z,2.03
2022-09-14T23:48:41.038Z,1.90
2022-09-14T23:51:27.921Z,2.30
2022-09-14T23:54:14.832Z,2.17
2022-09-14T23:57:01.712Z,1.90
2022-09-14T23:59:48.587Z,1.63
